createdAt,value
2018-05-15T00:02:21.999Z,63.60
2018-05-15T00:08:54.770Z,63.90
2018-05-15T00:11:58.288Z,64.20
2018-05-15T00:15:01.525Z,64.30
2018-05-15T00:18:05.239Z,64.30
2018-05-15T00:21:09.217Z,62.80
2018-05-15T00:24:12.461Z,62.70
2018-05-15T00:27:15.685Z,62.20
2018-05-15T00:30:21.592Z,61.90
2018-05-15T00:33:25.861Z,61.20
2018-05-15T00:36:29.056Z,60.70
2018-05-15T00:39:32.810Z,60.70
2018-05-15T00:42:36.763Z,60.60
2018-05-15T00:45:40.101Z,60.40
2018-05-15T00:48:45.003Z,60.20
2018-05-15T00:51:54.898Z,60.10
2018-05-15T00:55:09.891Z,60.30
2018-05-15T00:58:13.159Z,60.40
2018-05-15T01:01:17.247Z,60.90
2018-05-15T01:04:20.538Z,60.70
2018-05-15T01:07:24.683Z,60.80
2018-05-15T01:10:27.890Z,60.80
2018-05-15T01:13:31.089Z,60.90
2018-05-15T01:16:34.326Z,61.00
2018-05-15T01:19:38.787Z,61.20
2018-05-15T01:22:43.515Z,61.50
2018-05-15T01:25:47.941Z,61.90
2018-05-15T01:28:51.175Z,62.10
2018-05-15T01:31:56.926Z,61.50
2018-05-15T01:35:01.832Z,61.30
2018-05-15T01:38:05.052Z,61.20
2018-05-15T01:41:09.853Z,61.40
2018-05-15T01:44:14.616Z,61.30
2018-05-15T01:47:20.097Z,61.50
2018-05-15T01:50:24.265Z,61.30
2018-05-15T01:53:27.478Z,61.20
2018-05-15T01:56:30.640Z,60.90
2018-05-15T01:59:37.149Z,61.40
2018-05-15T02:02:42.171Z,62.10
2018-05-15T02:05:45.387Z,62.20
2018-05-15T02:08:48.635Z,62.30
2018-05-15T02:11:51.896Z,62.10
2018-05-15T02:14:57.627Z,62.00
2018-05-15T02:18:01.593Z,63.20
2018-05-15T02:21:04.834Z,63.00
2018-05-15T02:24:09.364Z,67.00
2018-05-15T02:27:13.304Z,67.30
2018-05-15T02:30:16.499Z,66.90
2018-05-15T02:33:19.737Z,67.50
2018-05-15T02:36:23.841Z,69.50
2018-05-15T02:39:28.748Z,69.30
2018-05-15T02:42:32.908Z,67.80
2018-05-15T02:45:36.894Z,68.60
2018-05-15T02:48:40.300Z,68.50
2018-05-15T02:51:43.765Z,68.90
2018-05-15T02:54:47.786Z,68.70
2018-05-15T02:57:51.872Z,69.40
2018-05-15T03:00:56.149Z,70.40
2018-05-15T03:03:59.389Z,70.30
2018-05-15T03:07:03.401Z,71.40
2018-05-15T03:10:07.363Z,72.10
2018-05-15T03:13:11.224Z,71.80
2018-05-15T03:16:17.130Z,72.80
2018-05-15T03:19:19.812Z,72.30
2018-05-15T03:22:23.039Z,73.90
2018-05-15T03:25:26.300Z,74.50
2018-05-15T03:28:29.474Z,74.60
2018-05-15T03:31:33.445Z,75.30
2018-05-15T03:34:36.589Z,75.90
2018-05-15T03:37:41.035Z,76.30
2018-05-15T03:40:44.740Z,75.90
2018-05-15T03:43:47.931Z,76.40
2018-05-15T03:46:52.155Z,77.60
2018-05-15T03:49:55.398Z,78.00
2018-05-15T03:52:58.786Z,76.60
2018-05-15T03:56:03.333Z,77.00
2018-05-15T03:59:06.590Z,77.10
2018-05-15T04:02:22.488Z,77.30
2018-05-15T04:09:12.373Z,77.50
2018-05-15T04:12:15.591Z,77.40
2018-05-15T04:15:19.755Z,78.20
2018-05-15T04:18:25.470Z,77.80
2018-05-15T04:21:28.674Z,76.60
2018-05-15T04:24:32.891Z,75.10
2018-05-15T04:27:36.073Z,76.20
2018-05-15T04:30:40.427Z,77.70
2018-05-15T04:33:43.662Z,76.70
2018-05-15T04:36:47.097Z,76.00
2018-05-15T04:39:51.642Z,75.50
2018-05-15T04:42:55.225Z,75.30
2018-05-15T04:45:58.504Z,72.30
2018-05-15T04:49:01.918Z,75.00
2018-05-15T04:52:05.111Z,75.00
2018-05-15T04:55:09.092Z,74.00
2018-05-15T04:58:13.540Z,73.90
2018-05-15T05:01:16.740Z,73.10
2018-05-15T05:04:20.724Z,74.30
2018-05-15T05:07:23.934Z,74.00
2018-05-15T05:10:27.138Z,74.80
2018-05-15T05:13:31.145Z,76.30
2018-05-15T05:16:34.583Z,75.70
2018-05-15T05:19:38.732Z,69.30
2018-05-15T05:22:41.987Z,70.60
2018-05-15T05:25:45.943Z,71.80
2018-05-15T05:28:49.154Z,71.60
2018-05-15T05:31:52.323Z,70.50
2018-05-15T05:34:56.451Z,68.90
2018-05-15T05:38:00.558Z,65.80
2018-05-15T05:41:03.817Z,64.90
2018-05-15T05:44:08.166Z,63.10
2018-05-15T05:47:11.370Z,62.80
2018-05-15T05:50:15.356Z,62.00
2018-05-15T05:53:18.613Z,61.90
2018-05-15T05:56:23.087Z,61.80
2018-05-15T05:59:27.221Z,61.00
2018-05-15T06:02:30.436Z,60.80
2018-05-15T06:05:33.694Z,60.80
2018-05-15T06:08:36.899Z,58.60
2018-05-15T06:11:40.227Z,57.70
2018-05-15T06:14:44.216Z,57.70
2018-05-15T06:17:48.281Z,57.50
2018-05-15T06:20:52.455Z,56.30
2018-05-15T06:23:56.386Z,48.50
2018-05-15T06:26:59.654Z,48.40
2018-05-15T06:30:02.880Z,45.60
2018-05-15T06:33:07.306Z,44.90
2018-05-15T06:36:10.711Z,44.10
2018-05-15T06:39:13.968Z,42.50
2018-05-15T06:42:17.137Z,39.10
2018-05-15T06:45:20.370Z,39.30
2018-05-15T06:48:23.568Z,36.00
2018-05-15T06:51:27.562Z,33.60
2018-05-15T06:54:30.780Z,33.50
2018-05-15T06:57:34.768Z,32.70
2018-05-15T07:00:37.998Z,32.50
2018-05-15T07:03:42.229Z,36.20
2018-05-15T07:06:47.086Z,36.10
2018-05-15T07:09:50.289Z,36.00
2018-05-15T07:12:54.308Z,35.70
2018-05-15T07:15:57.525Z,36.90
2018-05-15T07:19:01.340Z,38.50
2018-05-15T07:22:04.544Z,37.90
2018-05-15T07:25:08.739Z,39.60
2018-05-15T07:28:11.939Z,39.40
2018-05-15T07:31:15.175Z,40.00
2018-05-15T07:34:19.110Z,43.10
2018-05-15T07:37:22.446Z,42.40
2018-05-15T07:40:26.544Z,40.90
2018-05-15T07:43:29.765Z,40.10
2018-05-15T07:46:33.746Z,38.30
2018-05-15T07:49:36.982Z,38.10
2018-05-15T07:52:40.966Z,38.60
2018-05-15T07:55:44.130Z,38.50
2018-05-15T07:58:47.327Z,39.60
2018-05-15T08:01:51.299Z,42.00
2018-05-15T08:04:54.681Z,42.00
2018-05-15T08:07:57.899Z,41.60
2018-05-15T08:11:01.956Z,34.50
2018-05-15T08:14:05.164Z,34.20
2018-05-15T08:17:10.373Z,36.20
2018-05-15T08:20:17.887Z,34.70
2018-05-15T08:23:21.095Z,34.30
2018-05-15T08:26:24.320Z,33.20
2018-05-15T08:29:29.472Z,34.20
2018-05-15T08:32:38.783Z,34.30
2018-05-15T08:35:42.295Z,34.00
2018-05-15T08:38:45.486Z,34.60
2018-05-15T08:41:49.262Z,32.00
2018-05-15T08:44:52.610Z,29.80
2018-05-15T08:47:57.294Z,31.60
2018-05-15T08:51:00.506Z,35.00
2018-05-15T08:54:03.750Z,38.30
2018-05-15T08:57:08.863Z,40.20
2018-05-15T09:00:14.517Z,40.00
2018-05-15T09:03:20.494Z,41.40
2018-05-15T09:06:24.318Z,41.60
2018-05-15T09:09:28.269Z,39.50
2018-05-15T09:12:32.000Z,39.40
2018-05-15T09:15:36.075Z,37.50
2018-05-15T09:18:40.769Z,36.80
2018-05-15T09:21:45.584Z,41.20
2018-05-15T09:24:48.803Z,41.00
2018-05-15T09:27:53.257Z,41.10
2018-05-15T09:30:59.171Z,41.10
2018-05-15T09:34:03.160Z,40.60
2018-05-15T09:37:06.454Z,41.00
2018-05-15T09:40:10.186Z,41.30
2018-05-15T09:43:35.651Z,39.50
2018-05-15T09:46:43.455Z,39.30
2018-05-15T09:49:46.925Z,38.70
2018-05-15T09:52:51.002Z,39.20
2018-05-15T09:55:55.584Z,40.90
2018-05-15T09:58:59.240Z,40.70
2018-05-15T10:02:04.046Z,42.30
2018-05-15T10:05:09.771Z,42.20
2018-05-15T10:08:13.114Z,43.40
2018-05-15T10:11:17.015Z,44.00
2018-05-15T10:14:20.277Z,43.70
2018-05-15T10:17:23.443Z,43.20
2018-05-15T10:20:27.620Z,42.80
2018-05-15T10:23:30.781Z,42.50
2018-05-15T10:26:34.000Z,40.30
2018-05-15T10:29:37.168Z,41.00
2018-05-15T10:32:40.455Z,41.20
2018-05-15T10:35:43.710Z,40.50
2018-05-15T10:38:46.897Z,40.20
2018-05-15T10:41:50.046Z,38.70
2018-05-15T10:44:53.390Z,39.30
2018-05-15T10:47:56.577Z,38.90
2018-05-15T10:51:00.032Z,37.40
2018-05-15T10:54:04.031Z,38.10
2018-05-15T10:57:09.336Z,39.50
2018-05-15T11:00:12.537Z,39.30
2018-05-15T11:03:15.823Z,40.60
2018-05-15T11:06:19.105Z,40.40
2018-05-15T11:09:22.301Z,40.20
2018-05-15T11:12:25.521Z,35.30
2018-05-15T11:15:28.737Z,34.40
2018-05-15T11:18:47.733Z,36.70
2018-05-15T11:22:02.748Z,39.00
2018-05-15T11:25:08.961Z,39.90
2018-05-15T11:28:12.248Z,40.30
2018-05-15T11:31:15.804Z,40.10
2018-05-15T11:34:20.295Z,42.80
2018-05-15T11:37:24.361Z,42.50
2018-05-15T11:40:28.456Z,42.00
2018-05-15T11:43:31.711Z,41.80
2018-05-15T11:46:35.925Z,41.60
2018-05-15T11:49:40.097Z,40.80
2018-05-15T11:52:45.238Z,43.00
2018-05-15T11:55:48.061Z,42.90
2018-05-15T11:58:51.340Z,42.60
2018-05-15T12:01:54.539Z,42.60
2018-05-15T12:04:58.589Z,42.60
2018-05-15T12:08:01.899Z,42.30
2018-05-15T12:11:05.237Z,40.10
2018-05-15T12:14:09.361Z,41.00
2018-05-15T12:17:13.306Z,44.60
2018-05-15T12:20:17.672Z,44.50
2018-05-15T12:23:22.148Z,44.30
2018-05-15T12:26:25.631Z,45.40
2018-05-15T12:29:28.897Z,49.50
2018-05-15T12:32:32.114Z,63.00
2018-05-15T12:35:36.185Z,67.70
2018-05-15T12:38:39.413Z,75.70
2018-05-15T12:41:43.648Z,77.80
2018-05-15T12:44:47.713Z,76.70
2018-05-15T12:47:51.774Z,75.30
2018-05-15T12:50:55.041Z,74.90
2018-05-15T12:53:59.224Z,79.00
2018-05-15T12:57:02.644Z,78.60
2018-05-15T13:00:06.013Z,78.30
2018-05-15T13:03:09.178Z,81.40
2018-05-15T13:06:13.799Z,79.50
2018-05-15T13:09:19.663Z,81.00
2018-05-15T13:12:24.525Z,80.70
2018-05-15T13:15:27.723Z,79.00
2018-05-15T13:18:30.975Z,83.60
2018-05-15T13:21:34.867Z,87.40
2018-05-15T13:24:38.457Z,87.20
2018-05-15T13:27:42.393Z,83.80
2018-05-15T13:30:45.658Z,83.70
2018-05-15T13:33:48.827Z,79.70
2018-05-15T13:36:52.431Z,83.20
2018-05-15T13:39:56.200Z,81.00
2018-05-15T13:42:59.407Z,79.80
2018-05-15T13:46:03.790Z,78.80
2018-05-15T13:49:06.989Z,78.60
2018-05-15T13:52:10.505Z,74.00
2018-05-15T13:55:13.828Z,69.30
2018-05-15T13:58:17.933Z,66.90
2018-05-15T14:01:21.911Z,66.20
2018-05-15T14:04:25.948Z,66.10
2018-05-15T14:07:29.141Z,61.20
2018-05-15T14:10:33.162Z,68.30
2018-05-15T14:13:37.170Z,56.30
2018-05-15T14:16:40.372Z,56.00
2018-05-15T14:19:44.385Z,53.60
2018-05-15T14:22:47.619Z,53.40
2018-05-15T14:25:50.835Z,52.50
2018-05-15T14:29:00.295Z,49.80
2018-05-15T14:32:03.516Z,49.70
2018-05-15T14:35:08.366Z,60.70
2018-05-15T14:38:13.628Z,68.10
2018-05-15T14:41:16.836Z,70.30
2018-05-15T14:44:20.113Z,78.30
2018-05-15T14:47:23.562Z,71.60
2018-05-15T14:50:27.221Z,74.30
2018-05-15T14:53:31.340Z,77.20
2018-05-15T14:56:34.571Z,76.80
2018-05-15T14:59:38.799Z,81.30
2018-05-15T15:02:42.021Z,85.40
2018-05-15T15:05:45.257Z,85.70
2018-05-15T15:08:48.472Z,87.80
2018-05-15T15:11:52.204Z,87.70
2018-05-15T15:14:55.475Z,87.80
2018-05-15T15:17:59.856Z,88.60
2018-05-15T15:21:03.639Z,88.40
2018-05-15T15:24:06.969Z,91.20
2018-05-15T15:27:10.491Z,92.40
2018-05-15T15:30:13.758Z,93.90
2018-05-15T15:33:17.028Z,94.60
2018-05-15T15:36:20.241Z,96.30
2018-05-15T15:39:24.152Z,95.70
2018-05-15T15:42:27.378Z,94.80
2018-05-15T15:45:30.707Z,95.80
2018-05-15T15:48:33.974Z,97.60
2018-05-15T15:51:37.495Z,98.60
2018-05-15T15:54:40.949Z,97.60
2018-05-15T15:57:44.176Z,98.10
2018-05-15T16:00:47.436Z,98.10
2018-05-15T16:03:50.664Z,97.80
2018-05-15T16:06:53.889Z,97.10
2018-05-15T16:09:57.966Z,96.80
2018-05-15T16:13:01.096Z,96.80
2018-05-15T16:16:04.440Z,97.10
2018-05-15T16:19:09.858Z,96.70
2018-05-15T16:22:13.834Z,96.80
2018-05-15T16:25:18.524Z,96.80
2018-05-15T16:28:22.677Z,95.30
2018-05-15T16:31:25.871Z,95.10
2018-05-15T16:34:29.064Z,95.40
2018-05-15T16:37:33.171Z,95.30
2018-05-15T16:40:36.378Z,95.50
2018-05-15T16:43:39.721Z,94.70
2018-05-15T16:46:44.444Z,94.60
2018-05-15T16:49:47.775Z,94.50
2018-05-15T16:52:53.099Z,94.60
2018-05-15T16:55:56.333Z,94.50
2018-05-15T16:58:59.853Z,94.00
2018-05-15T17:02:03.060Z,93.50
2018-05-15T17:05:07.116Z,93.20
2018-05-15T17:08:10.429Z,93.10
2018-05-15T17:11:13.789Z,93.40
2018-05-15T17:14:17.083Z,93.50
2018-05-15T17:17:22.063Z,93.20
2018-05-15T17:20:25.284Z,93.10
2018-05-15T17:23:28.583Z,92.50
2018-05-15T17:26:32.581Z,89.90
2018-05-15T17:29:35.774Z,89.70
2018-05-15T17:32:38.997Z,88.70
2018-05-15T17:35:43.057Z,92.40
2018-05-15T17:38:46.251Z,92.30
2018-05-15T17:41:50.312Z,89.60
2018-05-15T17:44:56.211Z,90.80
2018-05-15T17:47:59.510Z,90.70
2018-05-15T17:51:02.712Z,90.40
2018-05-15T17:54:05.903Z,90.50
2018-05-15T17:57:09.875Z,91.50
2018-05-15T18:00:13.884Z,92.70
2018-05-15T18:03:17.104Z,92.60
2018-05-15T18:06:20.926Z,92.90
2018-05-15T18:09:24.155Z,94.20
2018-05-15T18:12:27.419Z,95.10
2018-05-15T18:15:31.370Z,97.00
2018-05-15T18:18:35.721Z,96.80
2018-05-15T18:21:39.768Z,99.40
2018-05-15T18:24:43.158Z,99.30
2018-05-15T18:27:46.378Z,99.90
2018-05-15T18:30:52.016Z,99.90
2018-05-15T18:33:56.545Z,99.90
2018-05-15T18:37:00.233Z,99.90
2018-05-15T18:40:03.498Z,99.90
2018-05-15T18:43:07.547Z,99.90
2018-05-15T18:46:11.327Z,99.90
2018-05-15T18:49:14.884Z,99.90
2018-05-15T18:52:18.172Z,99.90
2018-05-15T18:55:23.689Z,99.90
2018-05-15T18:58:30.056Z,99.90
2018-05-15T19:01:36.184Z,99.90
2018-05-15T19:04:39.775Z,99.90
2018-05-15T19:07:43.180Z,99.90
2018-05-15T19:10:46.492Z,99.90
2018-05-15T19:13:52.273Z,99.90
2018-05-15T19:16:55.579Z,99.90
2018-05-15T19:19:59.010Z,99.90
2018-05-15T19:23:04.886Z,99.90
2018-05-15T19:26:08.643Z,99.90
2018-05-15T19:29:12.095Z,99.90
2018-05-15T19:32:17.287Z,99.90
2018-05-15T19:35:30.055Z,99.90
2018-05-15T19:38:33.577Z,99.90
2018-05-15T19:45:29.813Z,99.90
2018-05-15T19:48:33.094Z,99.90
2018-05-15T19:51:36.480Z,99.90
2018-05-15T19:54:40.518Z,99.90
2018-05-15T19:57:43.749Z,99.90
2018-05-15T20:00:47.219Z,99.90
2018-05-15T20:03:50.834Z,99.90
2018-05-15T20:06:56.999Z,99.90
2018-05-15T20:10:00.303Z,99.90
2018-05-15T20:13:03.864Z,99.90
2018-05-15T20:16:07.847Z,99.90
2018-05-15T20:19:11.010Z,99.90
2018-05-15T20:22:15.026Z,99.90
2018-05-15T20:25:18.274Z,99.90
2018-05-15T20:28:21.457Z,99.90
2018-05-15T20:31:25.834Z,99.90
2018-05-15T20:34:29.094Z,99.90
2018-05-15T20:37:33.559Z,99.90
2018-05-15T20:40:36.846Z,99.90
2018-05-15T20:43:40.054Z,99.90
2018-05-15T20:46:43.385Z,99.90
2018-05-15T20:49:47.307Z,99.90
2018-05-15T20:52:50.840Z,99.90
2018-05-15T20:55:54.089Z,99.90
2018-05-15T20:58:58.500Z,99.90
2018-05-15T21:02:02.304Z,99.90
2018-05-15T21:05:06.259Z,99.90
2018-05-15T21:08:09.514Z,99.90
2018-05-15T21:11:13.903Z,99.90
2018-05-15T21:14:17.240Z,99.90
2018-05-15T21:17:21.082Z,99.90
2018-05-15T21:20:24.672Z,99.90
2018-05-15T21:23:27.984Z,99.90
2018-05-15T21:26:32.735Z,99.90
2018-05-15T21:29:35.897Z,99.90
2018-05-15T21:32:39.104Z,99.90
2018-05-15T21:35:42.324Z,99.90
2018-05-15T21:38:45.491Z,99.90
2018-05-15T21:41:48.806Z,99.90
2018-05-15T21:44:52.225Z,99.90
2018-05-15T21:47:55.743Z,99.90
2018-05-15T21:51:00.250Z,99.90
2018-05-15T21:54:03.447Z,99.90
2018-05-15T21:57:06.693Z,99.90
2018-05-15T22:00:09.940Z,99.90
2018-05-15T22:03:13.195Z,99.90
2018-05-15T22:06:17.229Z,99.90
2018-05-15T22:09:21.974Z,99.90
2018-05-15T22:12:37.536Z,99.90
2018-05-15T22:15:52.443Z,99.90
2018-05-15T22:19:07.562Z,99.90
2018-05-15T22:22:15.074Z,99.90
2018-05-15T22:25:18.376Z,99.90
2018-05-15T22:28:21.707Z,99.90
2018-05-15T22:31:24.959Z,99.90
2018-05-15T22:34:28.128Z,99.90
2018-05-15T22:37:31.391Z,99.90
2018-05-15T22:40:34.595Z,99.90
2018-05-15T22:43:37.852Z,99.90
2018-05-15T22:46:41.049Z,99.90
2018-05-15T22:49:44.264Z,99.90
2018-05-15T22:52:48.255Z,99.90
2018-05-15T22:55:51.500Z,99.90
2018-05-15T22:58:56.636Z,99.90
2018-05-15T23:02:00.567Z,99.90
2018-05-15T23:05:03.918Z,99.90
2018-05-15T23:08:07.155Z,99.90
2018-05-15T23:11:10.329Z,99.90
2018-05-15T23:14:13.945Z,99.90
2018-05-15T23:17:18.503Z,99.90
2018-05-15T23:20:21.733Z,99.90
2018-05-15T23:23:24.938Z,99.90
2018-05-15T23:26:28.116Z,99.90
2018-05-15T23:29:31.836Z,99.90
2018-05-15T23:32:35.554Z,99.90
2018-05-15T23:35:39.548Z,99.90
2018-05-15T23:38:42.798Z,99.90
2018-05-15T23:41:46.841Z,99.90
2018-05-15T23:44:50.034Z,99.90
2018-05-15T23:47:53.735Z,99.90
2018-05-15T23:50:57.032Z,99.90
2018-05-15T23:54:00.337Z,99.90
2018-05-15T23:57:03.533Z,99.90
